Arenas Valley, New Mexico
Current Conditions -  °F | °C
As of 10:55 AM on Monday 24 Nov 2014 (Local Time) from KSVC Reporting Station
Clear Clear  
Wind Chill:   Ceiling: Unl
Heat Index:   Visibility: 10mi
Dew Point: -25°   Wind: 15mph
Humidity: 7%   Direction: 290°WNW
Pressure: 30.19"   Gusts: NA
Location:  32.79°N, 108.18°W
Report Text: KSVC 241755Z AUTO 29013KT 10SM CLR 09/M25 A3019 RMK AO2
Loading
Personal Weather Stations






























Interactive Weather Map New forecast layout! Learn more

10-Day Weather Forecast

Advertisements
Track Severe Weather on mobile